TAF Flughafenprognosen

Nürnberg TAF, ausgegeben So 09.05. 01:00

TAF EDDN 082300Z 0900/0924 12006KT CAVOK BECMG 0908/0911 15011KT BECMG 0916/0919 12006KT
GültigkeitVonBisWind in Beaufort
(Knoten)
Wolken
(Meter über Grund)
Sichtweite
(Meter)
Wettererscheinung
Grundvorhersage So 09.05. 02:00 Mo 10.05. 02:00 OSO 2 (6) Nicht signifikant >= 10000  
Übergang zu So 09.05. 10:00 So 09.05. 13:00 SSO 4 (11)      
Übergang zu So 09.05. 18:00 So 09.05. 21:00 OSO 2 (6)      

 

Hof TAF, ausgegeben Sa 08.05. 19:00

TAF EDQM 081700Z 0818/0903 17006KT 9999 SCT040
GültigkeitVonBisWind in Beaufort
(Knoten)
Wolken
(Meter über Grund)
Sichtweite
(Meter)
Wettererscheinung
Grundvorhersage Sa 08.05. 20:00 So 09.05. 05:00 S 2 (6) Wolkig (1200) >= 10000  

 

Erfurt-Bindersleben TAF, ausgegeben So 09.05. 01:00

TAF EDDE 082300Z 0900/0924 18010KT 9999 FEW045 TEMPO 0909/0916 20015G25KT
GültigkeitVonBisWind in Beaufort
(Knoten)
Wolken
(Meter über Grund)
Sichtweite
(Meter)
Wettererscheinung
Grundvorhersage So 09.05. 02:00 Mo 10.05. 02:00 S 3 (10) Leicht bewölkt (1400) >= 10000  
Vorübergehend So 09.05. 11:00 So 09.05. 18:00 SSW 4 (15) - 6 (25)      

 

Augsburg TAF, ausgegeben Sa 08.05. 19:00

TAF EDMA 081700Z 0818/0903 13004KT CAVOK
GültigkeitVonBisWind in Beaufort
(Knoten)
Wolken
(Meter über Grund)
Sichtweite
(Meter)
Wettererscheinung
Grundvorhersage Sa 08.05. 20:00 So 09.05. 05:00 SO 2 (4)      

 

Frankfurt TAF, ausgegeben So 09.05. 01:00

TAF EDDF 082300Z 0900/1006 09003KT CAVOK BECMG 0909/0912 20015G25KT BECMG 0918/0921 15004KT PROB30 TEMPO 1004/1006 22015G30KT SHRA BKN060TCU
GültigkeitVonBisWind in Beaufort
(Knoten)
Wolken
(Meter über Grund)
Sichtweite
(Meter)
Wettererscheinung
Grundvorhersage So 09.05. 02:00 Mo 10.05. 08:00 O 2 (3) Nicht signifikant >= 10000  
Übergang zu So 09.05. 11:00 So 09.05. 14:00 SSW 4 (15) - 6 (25)      
Übergang zu So 09.05. 20:00 So 09.05. 23:00 SSO 2 (4)      
Vorübergehend
(Wahrscheinlichkeit 30 %)
Mo 10.05. 06:00 Mo 10.05. 08:00 SW 4 (15) - 7 (30) Stark bewölkt (1800)   Regen-Schauer

 

Stuttgart TAF, ausgegeben So 09.05. 01:00

TAF EDDS 082300Z 0900/0924 VRB02KT CAVOK BECMG 0908/0910 14007KT
GültigkeitVonBisWind in Beaufort
(Knoten)
Wolken
(Meter über Grund)
Sichtweite
(Meter)
Wettererscheinung
Grundvorhersage So 09.05. 02:00 Mo 10.05. 02:00 Uml 1 (2) Nicht signifikant >= 10000  
Übergang zu So 09.05. 10:00 So 09.05. 12:00 SO 3 (7)      

 

München TAF, ausgegeben So 09.05. 01:00

TAF EDDM 082300Z 0900/1006 09005KT CAVOK TEMPO 0900/0905 VRB02KT BECMG 0908/0910 09010KT BECMG 0916/0919 09005KT
GültigkeitVonBisWind in Beaufort
(Knoten)
Wolken
(Meter über Grund)
Sichtweite
(Meter)
Wettererscheinung
Grundvorhersage So 09.05. 02:00 Mo 10.05. 08:00 O 2 (5) Nicht signifikant >= 10000  
Vorübergehend So 09.05. 02:00 So 09.05. 07:00 Uml 1 (2)      
Übergang zu So 09.05. 10:00 So 09.05. 12:00 O 3 (10)      
Übergang zu So 09.05. 18:00 So 09.05. 21:00 O 2 (5)